Time;durP1;ratioP1;P1;durP2;ratioP2;P2;SDS_P1;SDS_P2;PMS_P1;PMS_P2;Temp;Humidity;BMP_temperature;BMP_pressure;BME280_temperature;BME280_humidity;BME280_pressure;Samples;Min_cycle;Max_cycle;Signal;HPM_P1;HPM_P2
2023/12/15 00:02:08;;;;;;;12.60;5.77;;;5.50;85.90;;;;;;5036138;28;20197;-73
2023/12/15 00:04:34;;;;;;;12.30;6.00;;;5.40;85.90;;;;;;5036094;28;20810;-73
2023/12/15 00:06:59;;;;;;;11.87;5.10;;;5.40;85.90;;;;;;5042914;28;20606;-74
2023/12/15 00:09:25;;;;;;;14.03;5.90;;;5.30;86.00;;;;;;5035960;28;20205;-74
2023/12/15 00:11:50;;;;;;;13.90;6.80;;;5.30;86.20;;;;;;5039246;28;20180;-75
2023/12/15 00:14:16;;;;;;;13.63;6.30;;;5.20;86.30;;;;;;5046215;28;20207;-73
2023/12/15 00:16:41;;;;;;;10.53;5.60;;;5.10;86.30;;;;;;5047242;28;20837;-73
2023/12/15 00:19:07;;;;;;;14.17;6.20;;;5.10;86.50;;;;;;5043426;28;20250;-73
2023/12/15 00:21:33;;;;;;;15.03;6.73;;;5.10;86.80;;;;;;5038680;28;20215;-73
2023/12/15 00:23:58;;;;;;;17.23;6.30;;;5.10;86.80;;;;;;5046158;28;20225;-73
2023/12/15 00:26:24;;;;;;;13.13;7.33;;;5.10;86.90;;;;;;5042381;28;20193;-73
2023/12/15 00:28:49;;;;;;;16.07;5.63;;;5.20;87.00;;;;;;5040253;28;20184;-73
2023/12/15 00:31:15;;;;;;;9.53;4.10;;;5.10;87.00;;;;;;5039569;28;20217;-74
2023/12/15 00:33:40;;;;;;;11.80;5.47;;;5.00;87.00;;;;;;5053737;28;20180;-73
2023/12/15 00:36:06;;;;;;;13.77;5.97;;;4.90;87.10;;;;;;5058334;28;20219;-74
2023/12/15 00:38:32;;;;;;;13.53;5.60;;;5.00;87.40;;;;;;5037049;28;20184;-72
2023/12/15 00:40:58;;;;;;;11.97;5.23;;;4.90;87.60;;;;;;5038730;28;20578;-74
2023/12/15 00:43:23;;;;;;;11.33;6.13;;;5.00;87.40;;;;;;5036407;28;20187;-74
2023/12/15 00:45:49;;;;;;;11.30;5.50;;;5.00;87.40;;;;;;5037863;28;20549;-74
2023/12/15 00:48:14;;;;;;;11.13;4.97;;;4.90;87.00;;;;;;5042140;28;20564;-74
2023/12/15 00:50:40;;;;;;;13.20;5.83;;;4.80;87.00;;;;;;5036038;28;20227;-74
2023/12/15 00:53:05;;;;;;;14.27;6.40;;;4.70;86.90;;;;;;5040594;28;20213;-72
2023/12/15 00:55:31;;;;;;;14.23;6.07;;;4.70;86.90;;;;;;5040156;28;20196;-73
2023/12/15 00:57:56;;;;;;;12.17;5.40;;;4.60;86.90;;;;;;5039154;28;20639;-74
2023/12/15 01:00:22;;;;;;;18.30;5.80;;;4.70;86.90;;;;;;5040154;28;20212;-74
2023/12/15 01:02:47;;;;;;;16.10;5.30;;;4.80;86.90;;;;;;5039252;28;20181;-76
2023/12/15 01:05:13;;;;;;;14.97;5.40;;;4.80;86.90;;;;;;5038837;28;20205;-74
2023/12/15 01:07:39;;;;;;;11.60;5.03;;;4.80;86.80;;;;;;5046377;28;20204;-74
2023/12/15 01:10:04;;;;;;;11.00;4.50;;;4.80;86.30;;;;;;5042914;28;20310;-72
2023/12/15 01:12:30;;;;;;;10.60;4.80;;;4.80;86.50;;;;;;5043125;28;20184;-74
2023/12/15 01:14:56;;;;;;;10.30;4.13;;;4.70;86.30;;;;;;5041380;28;20584;-73
2023/12/15 01:17:21;;;;;;;14.80;5.17;;;4.70;86.30;;;;;;5051921;28;20560;-73
2023/12/15 01:19:47;;;;;;;12.90;5.37;;;4.80;86.50;;;;;;5042950;28;20213;-72
2023/12/15 01:22:12;;;;;;;9.00;4.40;;;4.80;86.60;;;;;;5038477;28;20653;-73
2023/12/15 01:24:38;;;;;;;12.00;5.33;;;4.90;86.80;;;;;;5042957;28;20198;-73
2023/12/15 01:27:03;;;;;;;10.60;4.80;;;4.90;86.60;;;;;;5043712;28;20297;-73
2023/12/15 01:29:29;;;;;;;14.97;5.80;;;4.80;86.20;;;;;;5039352;28;20213;-74
2023/12/15 01:31:55;;;;;;;14.70;5.93;;;4.90;86.30;;;;;;5038151;28;20829;-74
2023/12/15 01:34:20;;;;;;;20.13;6.77;;;4.90;86.50;;;;;;5046677;28;20189;-75
2023/12/15 01:36:46;;;;;;;10.60;5.10;;;4.90;86.50;;;;;;5058801;28;20183;-73
2023/12/15 01:39:11;;;;;;;12.57;5.43;;;5.00;86.30;;;;;;5039140;28;20188;-73
2023/12/15 01:41:37;;;;;;;14.90;5.80;;;4.90;86.30;;;;;;5039117;28;20269;-72
2023/12/15 01:44:04;;;;;;;17.27;5.93;;;4.90;86.60;;;;;;5043095;28;20239;-72
2023/12/15 01:46:30;;;;;;;13.50;5.73;;;4.90;86.90;;;;;;5060797;28;20181;-72
2023/12/15 01:48:55;;;;;;;14.57;6.30;;;4.80;87.10;;;;;;5053492;28;20478;-74
2023/12/15 01:51:21;;;;;;;16.93;6.47;;;4.70;87.10;;;;;;5040734;28;20232;-72
2023/12/15 01:53:47;;;;;;;17.57;7.23;;;4.60;87.40;;;;;;5052865;28;20667;-73
2023/12/15 01:56:12;;;;;;;16.80;6.03;;;4.60;87.70;;;;;;5048242;28;20224;-73
2023/12/15 01:58:38;;;;;;;15.67;6.90;;;4.50;87.70;;;;;;5044843;28;20231;-74
2023/12/15 02:01:04;;;;;;;17.03;7.40;;;4.40;87.70;;;;;;5047589;28;20844;-74
2023/12/15 02:03:30;;;;;;;17.53;7.40;;;4.40;87.70;;;;;;5044360;28;20185;-75
2023/12/15 02:05:56;;;;;;;14.70;6.13;;;4.40;87.70;;;;;;5049774;28;20438;-74
2023/12/15 02:08:22;;;;;;;15.70;6.03;;;4.40;87.80;;;;;;5048283;28;20435;-73
2023/12/15 02:10:47;;;;;;;14.57;6.70;;;4.40;87.80;;;;;;5047974;28;20220;-79
2023/12/15 02:13:13;;;;;;;14.30;6.83;;;4.40;88.00;;;;;;5049065;28;20184;-73
2023/12/15 02:15:39;;;;;;;13.50;6.53;;;4.40;88.10;;;;;;5048746;28;20258;-74
2023/12/15 02:18:04;;;;;;;14.80;5.60;;;4.40;88.00;;;;;;5045149;28;20407;-73
2023/12/15 02:20:30;;;;;;;15.90;6.90;;;4.40;88.10;;;;;;5047569;28;20227;-74
2023/12/15 02:22:59;;;;;;;12.80;5.63;;;4.50;88.10;;;;;;5042029;28;20187;-74
2023/12/15 02:25:25;;;;;;;14.33;5.77;;;4.50;88.10;;;;;;5047798;28;20829;-74
2023/12/15 02:27:50;;;;;;;13.63;5.63;;;4.40;87.80;;;;;;5048059;28;20412;-74
2023/12/15 02:30:16;;;;;;;14.53;6.30;;;4.30;87.80;;;;;;5039224;28;20243;-74
2023/12/15 02:32:42;;;;;;;13.97;6.60;;;4.30;88.00;;;;;;5045726;28;20558;-73
2023/12/15 02:35:08;;;;;;;17.10;6.20;;;4.30;87.80;;;;;;5043555;28;20214;-74
2023/12/15 02:37:33;;;;;;;15.03;7.30;;;4.30;87.80;;;;;;5046417;28;20185;-73
2023/12/15 02:39:59;;;;;;;14.73;6.00;;;4.30;88.10;;;;;;5039211;28;20482;-73
2023/12/15 02:42:24;;;;;;;16.17;6.87;;;4.30;88.10;;;;;;5043390;28;20188;-75
2023/12/15 02:44:50;;;;;;;12.97;5.53;;;4.20;88.10;;;;;;5046643;28;20193;-73
2023/12/15 02:47:15;;;;;;;12.20;5.67;;;4.20;88.10;;;;;;5044591;28;20591;-73
2023/12/15 02:49:41;;;;;;;15.57;6.20;;;4.20;88.30;;;;;;5046715;28;20236;-72
2023/12/15 02:52:07;;;;;;;15.63;6.30;;;4.20;88.10;;;;;;5045314;28;20631;-75
2023/12/15 02:54:36;;;;;;;18.20;6.90;;;4.30;87.80;;;;;;5050248;28;20206;-74
2023/12/15 02:57:02;;;;;;;17.10;5.97;;;4.30;87.80;;;;;;5042499;28;20446;-75
2023/12/15 02:59:27;;;;;;;15.10;5.77;;;4.30;87.80;;;;;;5046240;28;20415;-74
2023/12/15 03:01:53;;;;;;;15.27;6.37;;;4.40;88.00;;;;;;5043302;28;20191;-74
2023/12/15 03:04:18;;;;;;;15.33;6.07;;;4.40;87.80;;;;;;5054122;28;20596;-73
2023/12/15 03:06:44;;;;;;;15.07;6.03;;;4.40;87.80;;;;;;5042231;28;20184;-73
2023/12/15 03:09:11;;;;;;;11.57;5.80;;;4.40;87.70;;;;;;5050170;28;20177;-73
2023/12/15 03:11:37;;;;;;;18.60;6.90;;;4.40;87.70;;;;;;5044225;28;20216;-74
2023/12/15 03:14:02;;;;;;;16.63;6.40;;;4.40;87.70;;;;;;5050754;28;20440;-73
2023/12/15 03:16:28;;;;;;;17.73;6.17;;;4.40;87.70;;;;;;5043077;28;20185;-72
2023/12/15 03:18:54;;;;;;;14.17;6.70;;;4.40;87.80;;;;;;5048295;28;20201;-72
2023/12/15 03:21:20;;;;;;;12.77;5.30;;;4.40;87.80;;;;;;5047960;28;20213;-73
2023/12/15 03:23:45;;;;;;;16.47;6.23;;;4.50;87.80;;;;;;5045291;28;20181;-73
2023/12/15 03:26:11;;;;;;;14.60;5.80;;;4.60;87.70;;;;;;5047812;28;20192;-73
2023/12/15 03:28:40;;;;;;;14.53;5.40;;;4.60;87.60;;;;;;5049027;28;20518;-72
2023/12/15 03:31:07;;;;;;;14.60;6.27;;;4.60;87.40;;;;;;5045635;28;20260;-73
2023/12/15 03:33:36;;;;;;;14.30;5.83;;;4.50;87.10;;;;;;5044658;28;20463;-74
2023/12/15 03:36:05;;;;;;;15.67;6.03;;;4.60;87.30;;;;;;5052391;28;20414;-73
2023/12/15 03:38:34;;;;;;;15.70;6.23;;;4.60;87.30;;;;;;5046485;28;20436;-72
2023/12/15 03:40:59;;;;;;;14.00;6.47;;;4.60;87.40;;;;;;5038546;28;20460;-72
2023/12/15 03:43:25;;;;;;;14.53;5.60;;;4.60;87.40;;;;;;5041109;28;20853;-74
2023/12/15 03:45:51;;;;;;;15.67;6.50;;;4.70;87.30;;;;;;5036405;28;20251;-73
2023/12/15 03:48:16;;;;;;;14.77;6.20;;;4.80;87.40;;;;;;5044700;28;20204;-72
2023/12/15 03:50:42;;;;;;;15.73;6.23;;;4.80;87.30;;;;;;5035053;28;20225;-72
2023/12/15 03:53:07;;;;;;;11.40;5.80;;;4.70;87.00;;;;;;5042314;28;20280;-73
2023/12/15 03:55:33;;;;;;;13.90;5.87;;;4.80;87.00;;;;;;5059109;28;20542;-73
2023/12/15 03:57:59;;;;;;;11.13;4.60;;;4.70;86.80;;;;;;5043232;28;20196;-73
2023/12/15 04:00:24;;;;;;;16.00;6.67;;;4.70;86.90;;;;;;5037686;28;20209;-73
2023/12/15 04:02:50;;;;;;;15.63;6.30;;;4.70;86.90;;;;;;5044103;28;20206;-73
2023/12/15 04:05:16;;;;;;;15.00;6.90;;;4.60;87.10;;;;;;5038264;28;20200;-73
2023/12/15 04:07:42;;;;;;;13.67;5.67;;;4.70;87.10;;;;;;5036771;28;20192;-73
2023/12/15 04:10:09;;;;;;;12.53;5.57;;;4.70;87.30;;;;;;5036345;28;20483;-73
2023/12/15 04:12:34;;;;;;;13.20;6.03;;;4.70;87.30;;;;;;5037730;28;20906;-72
2023/12/15 04:15:00;;;;;;;14.83;6.10;;;4.70;87.40;;;;;;5041193;28;20448;-73
2023/12/15 04:17:26;;;;;;;15.47;6.43;;;4.80;87.60;;;;;;5039661;28;20185;-72
2023/12/15 04:19:52;;;;;;;16.13;5.33;;;4.70;87.40;;;;;;5044159;28;20212;-74
2023/12/15 04:22:19;;;;;;;10.73;6.00;;;4.70;87.60;;;;;;5043731;28;20416;-74
2023/12/15 04:24:45;;;;;;;14.37;6.10;;;4.60;87.70;;;;;;5059743;28;20186;-74
2023/12/15 04:27:10;;;;;;;14.80;5.80;;;4.60;87.30;;;;;;5038412;28;20419;-74
2023/12/15 04:29:36;;;;;;;19.37;6.70;;;4.60;87.40;;;;;;5045794;28;20497;-74
2023/12/15 04:32:02;;;;;;;15.13;6.70;;;4.70;87.60;;;;;;5040962;28;20196;-74
2023/12/15 04:34:28;;;;;;;15.23;6.40;;;4.80;87.60;;;;;;5045888;28;20193;-72
2023/12/15 04:36:54;;;;;;;13.80;5.70;;;4.80;87.60;;;;;;5041427;28;20185;-72
2023/12/15 04:39:20;;;;;;;14.20;7.13;;;4.80;87.60;;;;;;5048903;28;20438;-72
2023/12/15 04:41:46;;;;;;;13.23;6.60;;;4.80;87.40;;;;;;5044893;28;20434;-72
2023/12/15 04:44:11;;;;;;;13.80;5.77;;;4.80;87.30;;;;;;5040204;28;20185;-75
2023/12/15 04:46:37;;;;;;;14.97;5.50;;;4.80;87.30;;;;;;5042558;28;20679;-74
2023/12/15 04:49:05;;;;;;;15.17;6.40;;;4.80;87.30;;;;;;5045558;28;20188;-74
2023/12/15 04:51:30;;;;;;;13.83;5.80;;;4.80;87.30;;;;;;5041590;28;20229;-73
2023/12/15 04:53:56;;;;;;;14.30;6.70;;;4.80;87.30;;;;;;5042407;28;20497;-74
2023/12/15 04:56:22;;;;;;;10.90;5.53;;;4.80;87.40;;;;;;5037247;28;20208;-73
2023/12/15 04:58:47;;;;;;;15.37;6.20;;;4.90;87.30;;;;;;5037786;28;20188;-75
2023/12/15 05:01:13;;;;;;;10.87;5.23;;;5.00;87.30;;;;;;5032678;28;20205;-73
2023/12/15 05:03:43;;;;;;;8.37;4.97;;;5.00;86.50;;;;;;5037623;28;20193;-74
2023/12/15 05:06:22;;;;;;;12.63;5.20;;;5.00;86.50;;;;;;5045620;28;20786;-73
2023/12/15 05:08:49;;;;;;;13.43;5.50;;;5.10;86.50;;;;;;5035967;28;21065;-73
2023/12/15 05:11:15;;;;;;;12.60;5.70;;;5.20;86.20;;;;;;5034837;28;20604;-74
2023/12/15 05:13:41;;;;;;;13.97;5.50;;;5.10;86.20;;;;;;5040935;28;20446;-73
2023/12/15 05:16:07;;;;;;;13.63;6.30;;;5.10;86.30;;;;;;5042182;28;20434;-74
2023/12/15 05:18:33;;;;;;;12.50;6.07;;;5.20;86.50;;;;;;5037996;28;20515;-73
2023/12/15 05:20:59;;;;;;;12.03;5.80;;;5.10;86.30;;;;;;5039585;28;20540;-73
2023/12/15 05:23:25;;;;;;;12.37;7.00;;;5.10;86.50;;;;;;5040725;28;20783;-74
2023/12/15 05:25:50;;;;;;;18.50;6.53;;;5.10;86.80;;;;;;5042916;28;20534;-75
2023/12/15 05:28:16;;;;;;;12.70;5.60;;;5.00;86.90;;;;;;5040523;28;20251;-74
2023/12/15 05:30:42;;;;;;;14.07;5.67;;;5.00;86.90;;;;;;5038634;28;20220;-74
2023/12/15 05:33:07;;;;;;;14.20;6.80;;;5.10;87.10;;;;;;5035890;28;20194;-74
2023/12/15 05:35:33;;;;;;;14.20;5.73;;;5.10;87.00;;;;;;5038563;28;20286;-74
2023/12/15 05:37:59;;;;;;;14.70;6.23;;;5.20;87.00;;;;;;5036129;28;20185;-73
2023/12/15 05:40:24;;;;;;;14.37;6.23;;;5.20;86.80;;;;;;5044193;28;20455;-74
2023/12/15 05:42:50;;;;;;;14.80;5.67;;;5.10;86.30;;;;;;5041982;28;20300;-73
2023/12/15 05:45:16;;;;;;;12.80;6.63;;;5.10;86.50;;;;;;5046023;28;20200;-74
2023/12/15 05:47:41;;;;;;;13.07;6.57;;;5.10;86.60;;;;;;5042353;28;20185;-74
2023/12/15 05:50:07;;;;;;;14.80;6.30;;;5.10;86.50;;;;;;5043648;28;20227;-73
2023/12/15 05:52:33;;;;;;;15.93;7.63;;;5.20;86.60;;;;;;5038422;28;20228;-73
2023/12/15 05:54:58;;;;;;;14.57;6.87;;;5.20;86.50;;;;;;5044344;28;20205;-74
2023/12/15 05:57:24;;;;;;;15.03;6.37;;;5.20;86.00;;;;;;5046104;28;20525;-73
2023/12/15 05:59:50;;;;;;;18.97;8.13;;;5.10;85.90;;;;;;5040877;28;20215;-73
2023/12/15 06:02:16;;;;;;;12.70;6.03;;;5.20;86.20;;;;;;5043110;28;20181;-74
2023/12/15 06:04:41;;;;;;;18.37;7.40;;;5.30;86.60;;;;;;5045294;28;20495;-75
2023/12/15 06:07:07;;;;;;;13.00;5.63;;;5.30;86.50;;;;;;5043990;28;20433;-73
2023/12/15 06:09:33;;;;;;;11.77;5.43;;;5.30;86.50;;;;;;5042035;28;20205;-73
2023/12/15 06:11:58;;;;;;;16.17;6.97;;;5.20;86.30;;;;;;5040401;28;20190;-72
2023/12/15 06:14:25;;;;;;;18.17;6.30;;;5.10;86.60;;;;;;5059986;28;20435;-74
2023/12/15 06:16:51;;;;;;;14.30;6.47;;;5.10;86.90;;;;;;5052398;28;20177;-72
2023/12/15 06:19:17;;;;;;;18.00;7.20;;;5.00;87.10;;;;;;5049491;28;20428;-73
2023/12/15 06:21:42;;;;;;;14.97;7.10;;;5.10;87.10;;;;;;5044481;28;20438;-76
2023/12/15 06:24:08;;;;;;;18.23;6.30;;;5.20;87.40;;;;;;5045001;28;20183;-73
2023/12/15 06:26:34;;;;;;;16.30;6.90;;;5.20;87.00;;;;;;5050007;28;20283;-73
2023/12/15 06:28:59;;;;;;;16.27;7.70;;;5.20;86.90;;;;;;5039537;28;20188;-74
2023/12/15 06:31:25;;;;;;;16.70;7.40;;;5.10;86.90;;;;;;5038969;28;20244;-73
2023/12/15 06:33:51;;;;;;;14.60;6.40;;;5.20;87.00;;;;;;5039569;28;20185;-74
2023/12/15 06:36:18;;;;;;;16.90;7.73;;;5.20;87.00;;;;;;5043060;28;20418;-73
2023/12/15 06:38:44;;;;;;;15.77;7.37;;;5.30;87.30;;;;;;5037460;28;20939;-73
2023/12/15 06:41:11;;;;;;;14.33;6.90;;;5.30;87.00;;;;;;5037825;28;20837;-74
2023/12/15 06:43:41;;;;;;;12.90;6.27;;;5.40;86.80;;;;;;5046188;28;20421;-75
2023/12/15 06:46:07;;;;;;;14.57;7.17;;;5.40;86.60;;;;;;5046344;28;20428;-74
2023/12/15 06:48:33;;;;;;;23.57;8.17;;;5.40;86.30;;;;;;5038694;28;20420;-75
2023/12/15 06:50:59;;;;;;;14.37;6.93;;;5.40;86.30;;;;;;5040894;28;20619;-73
2023/12/15 06:53:24;;;;;;;10.13;5.30;;;5.40;86.50;;;;;;5049941;28;20419;-73
2023/12/15 06:55:50;;;;;;;15.80;6.43;;;5.50;86.50;;;;;;5043629;28;20224;-74
2023/12/15 06:58:16;;;;;;;12.90;6.10;;;5.50;85.60;;;;;;5037981;28;20183;-74
2023/12/15 07:00:42;;;;;;;15.20;7.03;;;5.40;85.00;;;;;;5044701;28;20220;-76
2023/12/15 07:03:08;;;;;;;19.40;7.13;;;5.40;85.00;;;;;;5051368;28;20435;-77
2023/12/15 07:05:34;;;;;;;12.70;7.23;;;5.40;85.50;;;;;;5045450;28;20484;-76
2023/12/15 07:08:03;;;;;;;14.10;6.30;;;5.50;85.60;;;;;;5050539;28;20415;-76
2023/12/15 07:10:29;;;;;;;9.90;5.60;;;5.50;85.90;;;;;;5043073;28;20495;-76
2023/12/15 07:12:55;;;;;;;13.67;6.30;;;5.60;85.90;;;;;;5038414;28;20428;-74
2023/12/15 07:15:21;;;;;;;13.00;6.30;;;5.60;85.50;;;;;;5039034;28;20533;-75
2023/12/15 07:17:46;;;;;;;14.10;6.70;;;5.60;85.50;;;;;;5039005;28;20757;-76
2023/12/15 07:20:12;;;;;;;11.27;5.80;;;5.60;85.00;;;;;;5041337;28;20269;-75
2023/12/15 07:22:37;;;;;;;16.03;7.10;;;5.60;84.90;;;;;;5044229;28;20214;-76
2023/12/15 07:25:03;;;;;;;11.73;6.43;;;5.60;85.20;;;;;;5041099;28;20669;-75
2023/12/15 07:27:29;;;;;;;11.67;6.83;;;5.60;85.20;;;;;;5041969;28;20200;-75
2023/12/15 07:29:54;;;;;;;11.87;6.07;;;5.70;85.00;;;;;;5039729;28;20467;-76
2023/12/15 07:32:20;;;;;;;11.90;5.90;;;5.70;85.00;;;;;;5048383;28;20218;-76
2023/12/15 07:34:46;;;;;;;13.90;7.00;;;5.70;84.70;;;;;;5049325;28;20211;-76
2023/12/15 07:37:12;;;;;;;12.20;6.53;;;5.70;84.60;;;;;;5049772;28;20444;-76
2023/12/15 07:39:38;;;;;;;13.23;5.50;;;5.70;84.70;;;;;;5043016;28;20494;-77
2023/12/15 07:42:04;;;;;;;10.80;5.80;;;5.70;84.60;;;;;;5042492;28;20683;-75
2023/12/15 07:44:30;;;;;;;13.83;6.33;;;5.70;84.60;;;;;;5040318;28;20451;-73
2023/12/15 07:46:56;;;;;;;13.33;6.07;;;5.60;84.90;;;;;;5039584;28;20851;-72
2023/12/15 07:49:22;;;;;;;15.33;6.80;;;5.50;85.20;;;;;;5049646;28;20199;-73
2023/12/15 07:51:49;;;;;;;12.43;6.40;;;5.40;85.60;;;;;;5035581;28;20490;-72
2023/12/15 07:54:16;;;;;;;13.10;6.63;;;5.40;85.70;;;;;;5036302;28;20509;-73
2023/12/15 07:56:42;;;;;;;16.60;7.20;;;5.30;86.00;;;;;;5042783;28;20489;-73
2023/12/15 07:59:08;;;;;;;19.73;8.87;;;5.30;86.30;;;;;;5042058;28;20924;-73
2023/12/15 08:01:34;;;;;;;16.47;7.50;;;5.30;86.30;;;;;;5043848;28;20236;-73
2023/12/15 08:04:00;;;;;;;16.90;8.63;;;5.40;86.30;;;;;;5049793;28;20802;-74
2023/12/15 08:06:25;;;;;;;15.80;6.67;;;5.40;86.30;;;;;;5046157;28;20432;-74
2023/12/15 08:08:52;;;;;;;14.20;7.43;;;5.40;86.20;;;;;;5042828;28;20486;-73
2023/12/15 08:11:18;;;;;;;13.67;7.03;;;5.40;86.00;;;;;;5039745;28;20212;-74
2023/12/15 08:13:44;;;;;;;14.57;7.07;;;5.50;86.20;;;;;;5049516;28;20469;-74
2023/12/15 08:16:10;;;;;;;14.37;7.20;;;5.60;85.90;;;;;;5041330;28;20415;-73
2023/12/15 08:18:36;;;;;;;12.77;7.03;;;5.60;85.50;;;;;;5044013;28;20272;-75
2023/12/15 08:21:02;;;;;;;13.97;7.03;;;5.70;85.50;;;;;;5042867;28;20601;-75
2023/12/15 08:23:27;;;;;;;14.13;7.53;;;5.80;85.50;;;;;;5041975;28;20582;-73
2023/12/15 08:25:53;;;;;;;21.00;7.53;;;5.90;85.20;;;;;;5041393;28;20189;-73
2023/12/15 08:28:20;;;;;;;16.37;7.60;;;5.90;85.00;;;;;;5040473;28;20230;-73
2023/12/15 08:30:47;;;;;;;16.03;7.50;;;5.90;84.90;;;;;;5043028;28;20672;-74
2023/12/15 08:33:12;;;;;;;15.87;7.27;;;5.90;85.00;;;;;;5035365;28;20519;-72
2023/12/15 08:35:38;;;;;;;17.00;8.50;;;5.80;84.70;;;;;;5041429;28;20427;-73
2023/12/15 08:38:03;;;;;;;16.43;8.40;;;5.80;85.20;;;;;;5039254;28;20181;-73
2023/12/15 08:40:29;;;;;;;17.30;9.17;;;5.80;85.30;;;;;;5049678;28;20204;-74
2023/12/15 08:42:54;;;;;;;18.20;8.70;;;5.80;85.30;;;;;;5044472;28;20189;-74
2023/12/15 08:45:20;;;;;;;16.97;8.67;;;5.80;85.50;;;;;;5045250;28;20204;-74
2023/12/15 08:47:46;;;;;;;17.27;8.50;;;5.80;85.60;;;;;;5042605;28;20183;-73
2023/12/15 08:50:11;;;;;;;14.90;7.90;;;5.90;85.30;;;;;;5037455;28;20208;-73
2023/12/15 08:52:37;;;;;;;20.20;8.97;;;5.90;85.30;;;;;;5035107;28;20201;-72
2023/12/15 08:55:03;;;;;;;16.50;8.40;;;5.90;85.30;;;;;;5036774;28;20196;-72
2023/12/15 08:57:29;;;;;;;22.67;8.53;;;5.90;85.00;;;;;;5042201;28;20279;-74
2023/12/15 08:59:54;;;;;;;16.57;8.50;;;5.90;85.20;;;;;;5035482;28;21058;-73
2023/12/15 09:02:20;;;;;;;20.70;8.83;;;5.90;85.30;;;;;;5034529;28;20196;-72
2023/12/15 09:04:46;;;;;;;19.30;8.90;;;5.90;85.20;;;;;;5041333;28;20176;-73
2023/12/15 09:07:12;;;;;;;20.27;8.17;;;6.00;85.50;;;;;;5041779;28;20238;-72
2023/12/15 09:09:38;;;;;;;17.87;8.10;;;6.00;85.60;;;;;;5040688;28;20240;-73
2023/12/15 09:12:05;;;;;;;14.80;8.10;;;6.00;85.50;;;;;;5035752;28;20432;-73
2023/12/15 09:14:32;;;;;;;16.40;8.33;;;6.10;85.50;;;;;;5047100;28;20845;-75
2023/12/15 09:16:58;;;;;;;17.20;8.40;;;6.10;85.00;;;;;;5039462;28;20812;-73
2023/12/15 09:19:25;;;;;;;16.47;7.30;;;6.00;85.00;;;;;;5036705;28;20491;-74
2023/12/15 09:21:51;;;;;;;15.30;7.63;;;6.00;85.00;;;;;;5041752;28;20431;-74
2023/12/15 09:24:18;;;;;;;16.80;8.20;;;6.00;85.00;;;;;;5051215;28;20502;-74
2023/12/15 09:26:45;;;;;;;17.17;8.17;;;6.10;85.30;;;;;;5045441;28;20436;-74
2023/12/15 09:29:11;;;;;;;16.93;7.77;;;6.10;85.00;;;;;;5045862;28;20472;-73
2023/12/15 09:31:37;;;;;;;17.50;8.33;;;6.10;84.90;;;;;;5042059;28;20844;-74
2023/12/15 09:34:03;;;;;;;23.03;8.33;;;6.10;84.90;;;;;;5053803;28;20435;-75
2023/12/15 09:36:29;;;;;;;21.20;9.23;;;6.20;85.20;;;;;;5041771;28;20273;-73
2023/12/15 09:38:55;;;;;;;22.20;8.70;;;6.30;84.70;;;;;;5039832;28;20514;-75
2023/12/15 09:41:21;;;;;;;20.93;8.43;;;6.40;84.70;;;;;;5042302;28;20248;-75
2023/12/15 09:43:46;;;;;;;22.17;9.77;;;6.30;84.10;;;;;;5045566;28;20609;-72
2023/12/15 09:46:12;;;;;;;17.57;8.60;;;6.30;84.40;;;;;;5038815;28;20537;-74
2023/12/15 09:48:38;;;;;;;16.93;8.27;;;6.40;84.30;;;;;;5046661;28;20200;-74
2023/12/15 09:51:17;;;;;;;19.40;9.03;;;6.40;84.00;;;;;;5043288;28;20264;-74
2023/12/15 09:53:46;;;;;;;20.17;8.93;;;6.40;84.30;;;;;;5044858;28;20412;-73
2023/12/15 09:56:12;;;;;;;14.90;8.00;;;6.50;84.30;;;;;;5049128;28;20446;-73
2023/12/15 09:58:38;;;;;;;16.27;8.30;;;6.50;83.70;;;;;;5043120;28;20435;-74
2023/12/15 10:01:04;;;;;;;16.27;7.83;;;6.50;83.70;;;;;;5037089;28;20459;-73
2023/12/15 10:03:30;;;;;;;18.87;8.67;;;6.50;83.70;;;;;;5044909;28;20184;-75
2023/12/15 10:05:56;;;;;;;15.90;7.90;;;6.60;83.70;;;;;;5038697;28;20440;-73
2023/12/15 10:08:23;;;;;;;17.63;8.70;;;6.60;83.60;;;;;;5044840;28;20439;-74
2023/12/15 10:10:53;;;;;;;16.30;8.60;;;6.70;83.60;;;;;;5037012;28;20325;-73
2023/12/15 10:13:19;;;;;;;18.50;8.17;;;6.70;83.40;;;;;;5043556;28;20476;-74
2023/12/15 10:15:50;;;;;;;16.07;8.50;;;6.70;83.60;;;;;;5044858;28;20495;-74
2023/12/15 10:18:16;;;;;;;16.37;8.40;;;6.80;83.60;;;;;;5042551;28;20659;-75
2023/12/15 10:20:43;;;;;;;16.20;8.30;;;6.90;83.60;;;;;;5037563;28;20464;-73
2023/12/15 10:23:09;;;;;;;16.03;8.20;;;7.00;82.70;;;;;;5050991;28;20197;-74
2023/12/15 10:25:34;;;;;;;19.77;7.83;;;7.00;82.50;;;;;;5052821;28;20426;-74
2023/12/15 10:28:03;;;;;;;16.90;8.20;;;7.00;82.40;;;;;;5047340;28;20672;-73
2023/12/15 10:30:28;;;;;;;19.50;9.07;;;7.00;82.20;;;;;;5039728;28;20220;-75
2023/12/15 10:32:57;;;;;;;16.20;8.73;;;7.00;82.50;;;;;;5039663;28;20940;-75
2023/12/15 10:35:23;;;;;;;17.87;8.20;;;7.00;82.70;;;;;;5042861;28;20544;-73
2023/12/15 10:37:49;;;;;;;17.63;8.53;;;7.10;82.80;;;;;;5037071;28;20420;-72
2023/12/15 10:40:15;;;;;;;18.60;7.37;;;7.10;82.70;;;;;;5043868;28;20201;-75
2023/12/15 10:42:42;;;;;;;19.40;8.80;;;7.20;82.80;;;;;;5041696;28;20181;-75
2023/12/15 10:45:08;;;;;;;20.27;9.20;;;7.30;82.40;;;;;;5052417;28;21016;-73
2023/12/15 10:47:34;;;;;;;13.93;7.23;;;7.30;82.20;;;;;;5044993;28;20427;-74
2023/12/15 10:50:01;;;;;;;15.37;7.97;;;7.40;81.70;;;;;;5046226;28;20824;-74
2023/12/15 10:52:27;;;;;;;17.83;7.90;;;7.40;81.70;;;;;;5046817;28;20431;-74
2023/12/15 10:54:54;;;;;;;13.27;6.93;;;7.50;81.80;;;;;;5044881;28;20948;-75
2023/12/15 10:57:21;;;;;;;19.30;7.73;;;7.40;81.40;;;;;;5051218;28;20192;-74
2023/12/15 10:59:50;;;;;;;13.20;8.00;;;7.40;81.40;;;;;;5049129;28;20553;-74
2023/12/15 11:02:19;;;;;;;15.47;8.03;;;7.50;81.70;;;;;;5040346;28;20734;-75
2023/12/15 11:04:48;;;;;;;14.60;7.37;;;7.50;80.90;;;;;;5044727;28;20416;-74
2023/12/15 11:07:13;;;;;;;11.90;6.53;;;7.50;80.90;;;;;;5051085;28;20426;-73
2023/12/15 11:09:39;;;;;;;12.90;6.87;;;7.60;81.20;;;;;;5040747;28;20454;-73
2023/12/15 11:12:28;;;;;;;16.60;7.90;;;7.80;81.20;;;;;;5041191;28;20196;-74
2023/12/15 11:15:10;;;;;;;13.20;6.70;;;7.60;79.90;;;;;;5041837;28;20523;-74
2023/12/15 11:17:45;;;;;;;11.50;6.67;;;7.70;80.30;;;;;;5043153;28;21059;-74
2023/12/15 11:20:28;;;;;;;17.03;6.33;;;7.80;79.90;;;;;;5038087;28;20554;-74
2023/12/15 11:23:14;;;;;;;11.90;6.30;;;7.80;79.70;;;;;;5042613;28;20453;-74
2023/12/15 11:25:49;;;;;;;13.67;7.13;;;7.90;79.30;;;;;;5046252;28;20776;-73
2023/12/15 11:28:17;;;;;;;13.53;6.20;;;7.90;79.30;;;;;;5049242;28;20501;-75
2023/12/15 11:30:52;;;;;;;12.13;6.47;;;7.90;79.60;;;;;;5037334;28;20529;-75
2023/12/15 11:33:26;;;;;;;11.63;6.40;;;8.20;79.60;;;;;;5042232;28;20437;-74
2023/12/15 11:36:13;;;;;;;10.30;5.40;;;8.30;78.40;;;;;;5046550;28;20971;-73
2023/12/15 11:38:39;;;;;;;12.53;6.20;;;8.20;78.30;;;;;;5049321;28;20423;-73
2023/12/15 11:41:06;;;;;;;12.63;6.33;;;8.30;78.60;;;;;;5040901;28;20450;-75
2023/12/15 11:43:36;;;;;;;10.77;5.30;;;8.20;77.60;;;;;;5044534;28;20420;-76
2023/12/15 11:46:05;;;;;;;13.07;6.30;;;8.20;78.30;;;;;;5045417;28;20457;-77
2023/12/15 11:48:34;;;;;;;10.37;4.63;;;8.20;78.00;;;;;;5036216;28;20503;-77
2023/12/15 11:51:00;;;;;;;11.50;5.37;;;8.20;77.40;;;;;;5038722;28;20896;-76
2023/12/15 11:53:26;;;;;;;11.20;5.53;;;8.00;77.10;;;;;;5044118;28;20478;-77
2023/12/15 11:55:52;;;;;;;9.20;5.20;;;8.00;78.10;;;;;;5044352;28;20458;-77
2023/12/15 11:58:18;;;;;;;12.70;4.90;;;8.00;78.30;;;;;;5039945;28;20419;-77
2023/12/15 12:00:45;;;;;;;9.07;4.60;;;8.00;78.10;;;;;;5039818;28;20209;-76
2023/12/15 12:03:15;;;;;;;10.23;4.03;;;8.00;77.80;;;;;;5046824;28;20465;-74
2023/12/15 12:05:42;;;;;;;9.60;5.10;;;7.90;78.00;;;;;;5039555;28;20895;-73
2023/12/15 12:08:09;;;;;;;8.60;5.10;;;7.80;78.30;;;;;;5038963;28;20495;-74
2023/12/15 12:10:39;;;;;;;9.80;5.17;;;7.80;78.40;;;;;;5040314;28;20471;-75
2023/12/15 12:13:05;;;;;;;9.10;4.70;;;7.90;78.90;;;;;;5045374;28;20427;-74
2023/12/15 12:15:31;;;;;;;7.10;3.77;;;8.00;78.40;;;;;;5057468;28;20479;-74
2023/12/15 12:17:57;;;;;;;10.60;5.30;;;8.10;78.10;;;;;;5043023;28;20455;-74
2023/12/15 12:20:28;;;;;;;10.60;4.93;;;8.10;77.80;;;;;;5036566;28;20213;-74
2023/12/15 12:22:55;;;;;;;9.30;5.07;;;8.20;77.80;;;;;;5038756;28;20200;-75
2023/12/15 12:25:20;;;;;;;8.70;4.10;;;8.10;77.70;;;;;;5050774;28;20426;-73
2023/12/15 12:27:46;;;;;;;9.33;3.50;;;8.10;77.40;;;;;;5048377;28;20415;-74
2023/12/15 12:30:15;;;;;;;8.80;4.70;;;8.00;77.70;;;;;;5036721;28;20247;-73
2023/12/15 12:32:41;;;;;;;10.33;4.33;;;7.80;77.80;;;;;;5039468;28;20176;-74
2023/12/15 12:35:08;;;;;;;6.37;4.60;;;7.80;78.60;;;;;;5040475;28;20445;-73
2023/12/15 12:37:34;;;;;;;9.87;5.13;;;7.80;78.60;;;;;;5037537;28;20265;-75
2023/12/15 12:40:00;;;;;;;9.80;4.83;;;7.80;78.70;;;;;;5033163;28;20581;-75
2023/12/15 12:42:26;;;;;;;9.00;4.73;;;7.70;78.70;;;;;;5034593;28;20416;-72
2023/12/15 12:44:52;;;;;;;7.47;4.40;;;7.70;79.20;;;;;;5036023;28;21031;-74